createdAt,value
2023-01-30T00:00:37.052Z,99352.03
2023-01-30T00:03:03.879Z,99347.28
2023-01-30T00:05:31.829Z,99356.66
2023-01-30T00:07:58.525Z,99354.81
2023-01-30T00:10:26.115Z,99347.38
2023-01-30T00:12:52.753Z,99320.97
2023-01-30T00:15:19.338Z,99304.72
2023-01-30T00:17:45.889Z,99306.59
2023-01-30T00:20:14.740Z,99298.59
2023-01-30T00:22:52.439Z,99270.59
2023-01-30T00:25:26.620Z,99267.13
2023-01-30T00:27:53.163Z,99258.56
2023-01-30T00:30:20.276Z,99245.28
2023-01-30T00:32:46.848Z,99239.44
2023-01-30T00:35:13.615Z,99223.66
2023-01-30T00:37:40.786Z,99244.22
2023-01-30T00:40:10.411Z,99277.38
2023-01-30T00:42:36.938Z,99274.72
2023-01-30T00:45:03.983Z,99283.19
2023-01-30T00:47:30.718Z,99255.69
2023-01-30T00:49:57.301Z,99251.44
2023-01-30T00:52:23.843Z,99232.75
2023-01-30T00:54:50.519Z,99238.63
2023-01-30T00:57:18.452Z,99221.66
2023-01-30T00:59:45.004Z,99238.78
2023-01-30T01:02:11.690Z,99234.00
2023-01-30T01:04:38.343Z,99234.84
2023-01-30T01:07:04.845Z,99243.44
2023-01-30T01:09:31.756Z,99247.00
2023-01-30T01:11:58.272Z,99237.91
2023-01-30T01:14:26.532Z,99248.09
2023-01-30T01:16:53.254Z,99247.03
2023-01-30T01:19:19.861Z,99256.09
2023-01-30T01:21:46.422Z,99258.84
2023-01-30T01:24:14.318Z,99255.63
2023-01-30T01:26:41.096Z,99259.09
2023-01-30T01:29:11.289Z,99247.03
2023-01-30T01:31:39.233Z,99214.50
2023-01-30T01:34:05.847Z,99197.69
2023-01-30T01:39:18.966Z,99189.44
2023-01-30T01:41:45.564Z,99177.13
2023-01-30T01:44:13.837Z,99169.94
2023-01-30T01:46:46.000Z,99168.31
2023-01-30T01:49:17.349Z,99177.94
2023-01-30T01:51:50.838Z,99181.13
2023-01-30T01:54:22.560Z,99184.38
2023-01-30T01:56:50.204Z,99192.47
2023-01-30T01:59:21.692Z,99182.88
2023-01-30T02:01:50.883Z,99181.00
2023-01-30T02:04:17.520Z,99176.50
2023-01-30T02:06:44.301Z,99174.41
2023-01-30T02:09:11.108Z,99151.47
2023-01-30T02:11:42.797Z,99138.16
2023-01-30T02:14:11.166Z,99139.53
2023-01-30T02:16:38.040Z,99137.97
2023-01-30T02:19:17.629Z,99129.97
2023-01-30T02:22:22.423Z,99137.19
2023-01-30T02:25:14.972Z,99124.38
2023-01-30T02:28:24.631Z,99123.84
2023-01-30T02:31:18.170Z,99121.97
2023-01-30T02:33:56.214Z,99098.16
2023-01-30T02:36:33.381Z,99100.03
2023-01-30T02:39:06.945Z,99090.41
2023-01-30T02:41:43.916Z,99084.81
2023-01-30T02:44:17.623Z,99053.78
2023-01-30T02:46:53.934Z,99071.19
2023-01-30T02:49:27.671Z,99069.84
2023-01-30T02:51:56.396Z,99055.16
2023-01-30T02:54:23.046Z,99057.06
2023-01-30T02:56:52.027Z,99052.56
2023-01-30T02:59:24.854Z,99063.25
2023-01-30T03:02:14.408Z,99049.38
2023-01-30T03:05:10.721Z,99041.63
2023-01-30T03:07:45.457Z,99038.41
2023-01-30T03:10:21.705Z,99023.72
2023-01-30T03:12:52.904Z,99011.69
2023-01-30T03:15:28.713Z,98999.13
2023-01-30T03:17:57.940Z,99014.09
2023-01-30T03:20:24.558Z,99032.00
2023-01-30T03:22:51.122Z,99019.44
2023-01-30T03:25:20.784Z,99028.28
2023-01-30T03:27:50.233Z,99001.00
2023-01-30T03:30:17.568Z,99009.28
2023-01-30T03:32:44.145Z,99002.88
2023-01-30T03:35:12.134Z,98978.00
2023-01-30T03:37:38.874Z,98996.75
2023-01-30T03:40:06.820Z,98984.75
2023-01-30T03:42:33.354Z,98977.28
2023-01-30T03:44:59.919Z,98960.75
2023-01-30T03:47:26.473Z,98945.53
2023-01-30T03:49:53.011Z,98946.34
2023-01-30T03:52:21.117Z,98940.72
2023-01-30T03:54:47.678Z,98937.25
2023-01-30T03:57:14.445Z,98935.66
2023-01-30T03:59:41.032Z,98920.69
2023-01-30T04:02:07.652Z,98937.28
2023-01-30T04:04:34.247Z,98926.84
2023-01-30T04:07:00.873Z,98930.31
2023-01-30T04:09:28.900Z,98938.38
2023-01-30T04:11:55.395Z,98948.53
2023-01-30T04:14:21.983Z,98955.75
2023-01-30T04:16:48.670Z,98977.19
2023-01-30T04:19:15.183Z,98975.88
2023-01-30T04:21:41.715Z,98952.56
2023-01-30T04:24:08.642Z,98954.47
2023-01-30T04:26:36.815Z,98944.84
2023-01-30T04:29:03.497Z,98940.53
2023-01-30T04:31:30.287Z,98970.81
2023-01-30T04:33:56.929Z,98948.59
2023-01-30T04:36:23.484Z,98924.78
2023-01-30T04:38:50.250Z,98925.34
2023-01-30T04:41:16.943Z,98915.44
2023-01-30T04:43:44.989Z,98921.56
2023-01-30T04:46:11.579Z,98903.13
2023-01-30T04:48:38.085Z,98901.50
2023-01-30T04:51:05.015Z,98894.56
2023-01-30T04:53:31.568Z,98885.19
2023-01-30T04:55:58.332Z,98884.66
2023-01-30T04:58:25.001Z,98889.44
2023-01-30T05:00:52.871Z,98878.75
2023-01-30T05:03:19.628Z,98867.53
2023-01-30T05:05:47.142Z,98865.94
2023-01-30T05:08:13.931Z,98857.63
2023-01-30T05:10:40.504Z,98859.53
2023-01-30T05:13:07.244Z,98866.19
2023-01-30T05:15:34.020Z,98868.59
2023-01-30T05:18:01.967Z,98866.75
2023-01-30T05:20:28.695Z,98868.63
2023-01-30T05:22:55.238Z,98848.00
2023-01-30T05:25:21.854Z,98853.66
2023-01-30T05:27:48.453Z,98833.56
2023-01-30T05:30:15.405Z,98836.75
2023-01-30T05:32:41.993Z,98844.25
2023-01-30T05:35:10.148Z,98833.81
2023-01-30T05:37:36.678Z,98826.59
2023-01-30T05:40:03.978Z,98828.72
2023-01-30T05:42:30.554Z,98825.50
2023-01-30T05:44:57.174Z,98830.59
2023-01-30T05:47:23.782Z,98821.75
2023-01-30T05:49:50.289Z,98815.31
2023-01-30T05:52:18.328Z,98808.34
2023-01-30T05:54:44.919Z,98826.56
2023-01-30T05:57:12.589Z,98812.63
2023-01-30T05:59:39.192Z,98809.97
2023-01-30T06:02:05.714Z,98823.63
2023-01-30T06:04:32.396Z,98836.75
2023-01-30T06:06:59.103Z,98815.31
2023-01-30T06:09:27.152Z,98812.63
2023-01-30T06:11:53.707Z,98819.84
2023-01-30T06:14:20.289Z,98808.34
2023-01-30T06:16:46.858Z,98815.56
2023-01-30T06:19:13.447Z,98821.19
2023-01-30T06:21:40.187Z,98808.91
2023-01-30T06:24:07.085Z,98836.47
2023-01-30T06:26:35.031Z,98836.22
2023-01-30T06:29:01.767Z,98834.34
2023-01-30T06:31:28.382Z,98837.81
2023-01-30T06:33:55.094Z,98828.44
2023-01-30T06:36:21.817Z,98823.88
2023-01-30T06:38:48.566Z,98823.09
2023-01-30T06:41:15.082Z,98823.34
2023-01-30T06:43:42.977Z,98820.41
2023-01-30T06:46:09.655Z,98822.25
2023-01-30T06:48:36.222Z,98823.59
2023-01-30T06:51:02.802Z,98830.28
2023-01-30T06:53:29.525Z,98833.78
2023-01-30T06:55:56.161Z,98829.22
2023-01-30T06:58:23.143Z,98814.22
2023-01-30T07:00:51.171Z,98811.53
2023-01-30T07:03:18.771Z,98830.00
2023-01-30T07:05:47.543Z,98821.16
2023-01-30T07:08:15.175Z,98824.38
2023-01-30T07:10:42.594Z,98834.00
2023-01-30T07:13:09.881Z,98848.22
2023-01-30T07:15:36.751Z,98828.41
2023-01-30T07:18:04.928Z,98832.69
2023-01-30T07:20:31.793Z,98849.56
2023-01-30T07:22:58.512Z,98843.94
2023-01-30T07:25:26.690Z,98852.25
2023-01-30T07:27:54.800Z,98822.50
2023-01-30T07:30:21.508Z,98821.94
2023-01-30T07:32:51.513Z,98835.88
2023-01-30T07:35:19.985Z,98841.50
2023-01-30T07:37:47.385Z,98821.16
2023-01-30T07:40:14.686Z,98824.88
2023-01-30T07:42:41.466Z,98820.31
2023-01-30T07:45:09.300Z,98808.25
2023-01-30T07:47:35.860Z,98815.50
2023-01-30T07:50:02.821Z,98800.22
2023-01-30T07:52:30.701Z,98797.81
2023-01-30T07:54:58.191Z,98811.47
2023-01-30T07:57:26.025Z,98802.91
2023-01-30T07:59:52.717Z,98799.94
2023-01-30T08:02:19.248Z,98806.88
2023-01-30T08:04:45.924Z,98810.63
2023-01-30T08:07:12.672Z,98837.13
2023-01-30T08:09:40.613Z,98808.19
2023-01-30T08:12:07.309Z,98821.59
2023-01-30T08:14:33.866Z,98834.72
2023-01-30T08:17:00.524Z,98831.78
2023-01-30T08:19:27.139Z,98820.78
2023-01-30T08:21:53.735Z,98816.50
2023-01-30T08:24:20.336Z,98794.25
2023-01-30T08:26:49.293Z,98811.72
2023-01-30T08:29:16.184Z,98826.97
2023-01-30T08:31:43.378Z,98816.00
2023-01-30T08:34:09.981Z,98819.19
2023-01-30T08:36:36.511Z,98807.38
2023-01-30T08:39:03.344Z,98818.94
2023-01-30T08:41:30.113Z,98820.00
2023-01-30T08:43:58.064Z,98819.25
2023-01-30T08:46:24.647Z,98818.16
2023-01-30T08:48:51.236Z,98818.44
2023-01-30T08:51:17.854Z,98791.56
2023-01-30T08:53:44.571Z,98786.22
2023-01-30T08:56:11.128Z,98783.25
2023-01-30T08:58:37.873Z,98789.13
2023-01-30T09:01:08.683Z,98798.19
2023-01-30T09:03:35.609Z,98783.72
2023-01-30T09:06:02.369Z,98787.19
2023-01-30T09:08:29.076Z,98783.44
2023-01-30T09:10:58.153Z,98797.66
2023-01-30T09:13:24.926Z,98786.88
2023-01-30T09:15:51.698Z,98788.69
2023-01-30T09:18:19.932Z,98783.28
2023-01-30T09:20:46.691Z,98791.84
2023-01-30T09:23:13.431Z,98807.16
2023-01-30T09:25:39.977Z,98805.78
2023-01-30T09:28:06.684Z,98820.84
2023-01-30T09:30:33.351Z,98800.66
2023-01-30T09:32:59.921Z,98794.22
2023-01-30T09:35:27.858Z,98800.13
2023-01-30T09:37:54.522Z,98787.47
2023-01-30T09:40:24.827Z,98783.97
2023-01-30T09:43:26.674Z,98788.16
2023-01-30T09:46:11.043Z,98794.81
2023-01-30T09:48:48.708Z,98792.94
2023-01-30T09:51:27.020Z,98817.88
2023-01-30T09:54:05.001Z,98807.44
2023-01-30T09:56:31.677Z,98807.19
2023-01-30T09:59:01.375Z,98820.84
2023-01-30T10:01:39.407Z,98812.81
2023-01-30T10:04:13.235Z,98800.69
2023-01-30T10:06:47.833Z,98812.47
2023-01-30T10:09:21.327Z,98816.19
2023-01-30T10:12:03.589Z,98812.16
2023-01-30T10:14:59.774Z,98814.50
2023-01-30T10:17:43.529Z,98830.34
2023-01-30T10:20:37.946Z,98840.00
2023-01-30T10:23:21.310Z,98861.81
2023-01-30T10:25:52.889Z,98861.34
2023-01-30T10:28:24.805Z,98847.44
2023-01-30T10:30:56.328Z,98830.31
2023-01-30T10:33:28.175Z,98826.28
2023-01-30T10:36:02.678Z,98819.53
2023-01-30T10:38:39.560Z,98822.09
2023-01-30T10:41:15.045Z,98837.16
2023-01-30T10:43:45.360Z,98835.00
2023-01-30T10:46:25.601Z,98835.84
2023-01-30T10:48:58.030Z,98825.22
2023-01-30T10:51:42.440Z,98827.00
2023-01-30T10:54:19.387Z,98830.88
2023-01-30T10:56:54.348Z,98835.03
2023-01-30T10:59:30.089Z,98821.06
2023-01-30T11:02:03.465Z,98826.00
2023-01-30T11:04:36.237Z,98810.84
2023-01-30T11:07:03.807Z,98807.94
2023-01-30T11:09:43.714Z,98806.50
2023-01-30T11:12:10.919Z,98811.97
2023-01-30T11:14:51.404Z,98805.19
2023-01-30T11:17:19.192Z,98811.44
2023-01-30T11:19:54.139Z,98812.94
2023-01-30T11:22:21.236Z,98806.28
2023-01-30T11:24:49.203Z,98797.09
2023-01-30T11:27:21.663Z,98807.31
2023-01-30T11:29:48.245Z,98800.44
2023-01-30T11:32:23.089Z,98800.38
2023-01-30T11:35:04.555Z,98799.09
2023-01-30T11:37:33.172Z,98792.81
2023-01-30T11:40:07.985Z,98802.44
2023-01-30T11:42:34.517Z,98789.84
2023-01-30T11:45:17.244Z,98798.00
2023-01-30T11:47:57.504Z,98790.88
2023-01-30T11:50:35.227Z,98807.28
2023-01-30T11:53:11.361Z,98803.56
2023-01-30T11:55:39.792Z,98802.69
2023-01-30T11:58:09.617Z,98806.81
2023-01-30T12:00:40.644Z,98806.09
2023-01-30T12:03:12.038Z,98796.31
2023-01-30T12:05:41.123Z,98786.72
2023-01-30T12:08:40.605Z,98784.63
2023-01-30T12:11:25.779Z,98778.34
2023-01-30T12:13:54.083Z,98783.84
2023-01-30T12:16:25.381Z,98781.66
2023-01-30T12:19:01.502Z,98795.94
2023-01-30T12:21:39.028Z,98771.84
2023-01-30T12:24:20.564Z,98765.84
2023-01-30T12:27:01.221Z,98757.84
2023-01-30T12:29:32.457Z,98765.91
2023-01-30T12:34:33.464Z,98769.97
2023-01-30T12:37:16.998Z,98790.88
2023-01-30T12:39:55.154Z,98784.00
2023-01-30T12:42:47.937Z,98776.59
2023-01-30T12:45:21.528Z,98773.50
2023-01-30T12:48:20.641Z,98778.38
2023-01-30T12:51:02.734Z,98792.81
2023-01-30T12:53:39.829Z,98786.66
2023-01-30T12:56:24.911Z,98790.13
2023-01-30T12:58:59.420Z,98792.59
2023-01-30T13:01:33.437Z,98789.38
2023-01-30T13:04:10.721Z,98800.47
2023-01-30T13:06:54.089Z,98801.31
2023-01-30T13:09:38.452Z,98792.66
2023-01-30T13:12:13.779Z,98802.44
2023-01-30T13:14:48.762Z,98818.56
2023-01-30T13:17:31.508Z,98816.47
2023-01-30T13:20:04.555Z,98822.41
2023-01-30T13:22:39.538Z,98819.44
2023-01-30T13:25:17.848Z,98814.94
2023-01-30T13:27:53.887Z,98826.75
2023-01-30T13:30:23.140Z,98822.25
2023-01-30T13:32:53.437Z,98828.28
2023-01-30T13:35:22.982Z,98838.19
2023-01-30T13:37:52.284Z,98845.88
2023-01-30T13:40:23.207Z,98856.69
2023-01-30T13:42:53.250Z,98835.19
2023-01-30T13:45:24.318Z,98837.41
2023-01-30T13:48:08.181Z,98846.19
2023-01-30T13:50:49.642Z,98865.34
2023-01-30T13:53:23.421Z,98821.72
2023-01-30T13:55:57.118Z,98834.00
2023-01-30T13:58:38.410Z,98823.81
2023-01-30T14:01:06.399Z,98825.16
2023-01-30T14:03:33.146Z,98824.94
2023-01-30T14:06:09.303Z,98830.22
2023-01-30T14:08:52.456Z,98835.81
2023-01-30T14:11:49.465Z,98841.00
2023-01-30T14:14:29.763Z,98837.22
2023-01-30T14:17:08.664Z,98842.59
2023-01-30T14:19:39.710Z,98834.94
2023-01-30T14:22:20.878Z,98844.34
2023-01-30T14:25:20.888Z,98839.19
2023-01-30T14:27:47.834Z,98844.75
2023-01-30T14:30:36.063Z,98853.56
2023-01-30T14:33:24.942Z,98873.50
2023-01-30T14:36:36.313Z,98863.13
2023-01-30T14:39:39.136Z,98864.78
2023-01-30T14:42:18.832Z,98867.25
2023-01-30T14:44:59.590Z,98877.16
2023-01-30T14:47:34.557Z,98903.25
2023-01-30T14:50:19.479Z,98907.47
2023-01-30T14:52:48.035Z,98916.22
2023-01-30T14:55:22.693Z,98917.63
2023-01-30T14:57:55.661Z,98928.03
2023-01-30T15:00:27.043Z,98931.63
2023-01-30T15:02:57.531Z,98930.44
2023-01-30T15:05:37.715Z,98925.50
2023-01-30T15:08:08.709Z,98919.91
2023-01-30T15:11:04.040Z,98925.25
2023-01-30T15:13:42.490Z,98927.81
2023-01-30T15:16:31.115Z,98937.66
2023-01-30T15:19:18.742Z,98944.72
2023-01-30T15:22:02.369Z,98952.63
2023-01-30T15:24:57.777Z,98984.47
2023-01-30T15:27:32.607Z,99025.06
2023-01-30T15:30:10.590Z,99068.19
2023-01-30T15:32:37.198Z,99074.69
2023-01-30T15:35:21.838Z,99017.97
2023-01-30T15:37:51.251Z,99027.47
2023-01-30T15:40:24.133Z,99028.31
2023-01-30T15:42:56.086Z,99023.28
2023-01-30T15:45:32.169Z,99037.00
2023-01-30T15:48:26.296Z,99044.09
2023-01-30T15:50:55.181Z,99053.25
2023-01-30T15:53:27.116Z,99058.59
2023-01-30T15:55:54.903Z,99061.22
2023-01-30T15:58:23.988Z,99070.16
2023-01-30T16:00:53.220Z,99082.25
2023-01-30T16:03:23.317Z,99078.44
2023-01-30T16:05:51.693Z,99073.22
2023-01-30T16:08:21.591Z,99099.63
2023-01-30T16:10:48.414Z,99103.94
2023-01-30T16:13:15.139Z,99119.88
2023-01-30T16:15:48.520Z,99118.25
2023-01-30T16:18:24.712Z,99146.50
2023-01-30T16:23:52.200Z,99165.28
2023-01-30T16:26:19.212Z,99162.03
2023-01-30T16:28:45.858Z,99177.88
2023-01-30T16:31:14.018Z,99182.97
2023-01-30T16:33:40.860Z,99187.28
2023-01-30T16:36:37.673Z,99189.91
2023-01-30T16:39:29.058Z,99193.34
2023-01-30T16:41:57.759Z,99193.59
2023-01-30T16:44:26.468Z,99191.22
2023-01-30T16:46:59.357Z,99189.34
2023-01-30T16:49:41.566Z,99200.59
2023-01-30T16:52:17.736Z,99190.88
2023-01-30T16:54:49.301Z,99201.66
2023-01-30T16:57:28.301Z,99199.75
2023-01-30T16:59:55.427Z,99195.41
2023-01-30T17:02:28.923Z,99210.22
2023-01-30T17:04:55.696Z,99209.19
2023-01-30T17:07:34.518Z,99217.28
2023-01-30T17:10:01.092Z,99212.91
2023-01-30T17:12:42.493Z,99220.97
2023-01-30T17:15:29.851Z,99217.75
2023-01-30T17:17:56.541Z,99220.44
2023-01-30T17:20:24.251Z,99221.00
2023-01-30T17:22:52.621Z,99230.94
2023-01-30T17:25:27.013Z,99224.50
2023-01-30T17:27:53.651Z,99229.84
2023-01-30T17:30:20.514Z,99235.25
2023-01-30T17:32:47.262Z,99235.19
2023-01-30T17:35:14.055Z,99231.38
2023-01-30T17:37:40.791Z,99247.25
2023-01-30T17:40:15.096Z,99245.34
2023-01-30T17:42:41.731Z,99253.63
2023-01-30T17:45:08.897Z,99250.66
2023-01-30T17:47:35.979Z,99260.09
2023-01-30T17:50:03.683Z,99258.53
2023-01-30T17:52:30.249Z,99262.28
2023-01-30T17:54:56.853Z,99268.50
2023-01-30T17:57:24.717Z,99266.28
2023-01-30T17:59:51.457Z,99270.53
2023-01-30T18:02:18.004Z,99268.63
2023-01-30T18:04:44.524Z,99266.41
2023-01-30T18:07:14.095Z,99269.66
2023-01-30T18:09:40.693Z,99281.28
2023-01-30T18:12:07.398Z,99277.25
2023-01-30T18:14:35.254Z,99279.16
2023-01-30T18:17:02.142Z,99283.47
2023-01-30T18:19:29.270Z,99283.78
2023-01-30T18:21:56.089Z,99289.69
2023-01-30T18:24:22.658Z,99295.56
2023-01-30T18:26:49.414Z,99295.56
2023-01-30T18:29:16.029Z,99304.50
2023-01-30T18:31:44.028Z,99305.59
2023-01-30T18:34:10.978Z,99309.41
2023-01-30T18:36:38.000Z,99308.88
2023-01-30T18:39:05.850Z,99312.88
2023-01-30T18:41:32.812Z,99317.22
2023-01-30T18:44:01.422Z,99309.44
2023-01-30T18:46:28.637Z,99312.16
2023-01-30T18:48:57.179Z,99316.47
2023-01-30T18:51:25.531Z,99320.53
2023-01-30T18:53:53.253Z,99317.03
2023-01-30T18:56:22.183Z,99331.28
2023-01-30T18:58:48.905Z,99326.19
2023-01-30T19:01:17.362Z,99332.88
2023-01-30T19:03:44.603Z,99326.06
2023-01-30T19:06:13.860Z,99328.69
2023-01-30T19:08:40.445Z,99316.03
2023-01-30T19:11:09.051Z,99328.41
2023-01-30T19:13:35.573Z,99331.66
2023-01-30T19:16:03.170Z,99342.47
2023-01-30T19:18:31.821Z,99349.97
2023-01-30T19:20:59.812Z,99351.09
2023-01-30T19:23:28.120Z,99358.31
2023-01-30T19:25:55.401Z,99357.81
2023-01-30T19:28:22.270Z,99364.31
2023-01-30T19:30:48.914Z,99370.56
2023-01-30T19:33:15.718Z,99374.59
2023-01-30T19:35:42.591Z,99379.47
2023-01-30T19:38:09.433Z,99389.97
2023-01-30T19:40:41.045Z,99385.13
2023-01-30T19:43:10.834Z,99377.03
2023-01-30T19:45:38.667Z,99388.88
2023-01-30T19:48:06.309Z,99401.28
2023-01-30T19:50:32.908Z,99403.44
2023-01-30T19:52:59.977Z,99405.84
2023-01-30T19:55:26.953Z,99418.19
2023-01-30T19:57:54.868Z,99419.81
2023-01-30T20:00:22.129Z,99422.47
2023-01-30T20:02:48.958Z,99436.19
2023-01-30T20:05:15.534Z,99424.34
2023-01-30T20:07:42.221Z,99433.22
2023-01-30T20:10:10.150Z,99442.94
2023-01-30T20:12:36.715Z,99442.38
2023-01-30T20:15:05.605Z,99444.31
2023-01-30T20:17:32.935Z,99459.63
2023-01-30T20:19:59.492Z,99456.66
2023-01-30T20:22:26.174Z,99452.09
2023-01-30T20:24:52.685Z,99453.44
2023-01-30T20:27:19.409Z,99462.31
2023-01-30T20:29:46.367Z,99463.66
2023-01-30T20:32:14.475Z,99462.34
2023-01-30T20:34:41.008Z,99475.28
2023-01-30T20:37:07.557Z,99485.47
2023-01-30T20:39:34.154Z,99487.94
2023-01-30T20:42:00.764Z,99500.56
2023-01-30T20:44:27.343Z,99495.47
2023-01-30T20:46:53.924Z,99495.72
2023-01-30T20:49:22.848Z,99496.84
2023-01-30T20:51:52.071Z,99493.88
2023-01-30T20:54:20.156Z,99496.31
2023-01-30T20:56:49.147Z,99491.44
2023-01-30T20:59:17.295Z,99514.59
2023-01-30T21:01:44.775Z,99515.41
2023-01-30T21:04:13.430Z,99502.25
2023-01-30T21:06:45.673Z,99504.41
2023-01-30T21:09:15.291Z,99518.13
2023-01-30T21:11:42.257Z,99517.06
2023-01-30T21:14:08.815Z,99518.66
2023-01-30T21:16:35.933Z,99508.72
2023-01-30T21:19:06.440Z,99518.41
2023-01-30T21:21:35.725Z,99518.94
2023-01-30T21:24:05.967Z,99531.59
2023-01-30T21:26:35.461Z,99528.88
2023-01-30T21:29:03.524Z,99537.75
2023-01-30T21:31:31.737Z,99544.97
2023-01-30T21:33:59.663Z,99543.91
2023-01-30T21:36:27.071Z,99550.38
2023-01-30T21:38:54.168Z,99546.06
2023-01-30T21:41:24.905Z,99549.06
2023-01-30T21:43:51.452Z,99559.81
2023-01-30T21:46:18.152Z,99547.69
2023-01-30T21:48:44.700Z,99555.47
2023-01-30T21:51:12.095Z,99553.34
2023-01-30T21:53:38.963Z,99556.31
2023-01-30T21:56:06.388Z,99548.78
2023-01-30T21:58:35.448Z,99550.94
2023-01-30T22:01:06.778Z,99560.94
2023-01-30T22:03:33.974Z,99567.38
2023-01-30T22:06:00.873Z,99580.56
2023-01-30T22:08:27.842Z,99580.56
2023-01-30T22:11:04.692Z,99571.16
2023-01-30T22:13:32.208Z,99571.69
2023-01-30T22:16:02.564Z,99570.38
2023-01-30T22:18:29.596Z,99585.41
2023-01-30T22:21:01.660Z,99578.44
2023-01-30T22:23:31.276Z,99579.75
2023-01-30T22:25:57.857Z,99571.94
2023-01-30T22:28:24.539Z,99581.13
2023-01-30T22:30:51.186Z,99580.84
2023-01-30T22:33:19.551Z,99587.84
2023-01-30T22:35:48.834Z,99587.28
2023-01-30T22:38:15.416Z,99599.66
2023-01-30T22:40:41.942Z,99596.97
2023-01-30T22:43:08.476Z,99595.66
2023-01-30T22:45:35.130Z,99588.66
2023-01-30T22:48:01.799Z,99589.44
2023-01-30T22:50:29.702Z,99581.09
2023-01-30T22:52:56.296Z,99588.38
2023-01-30T22:55:23.360Z,99589.16
2023-01-30T22:57:50.063Z,99584.06
2023-01-30T23:00:17.148Z,99592.97
2023-01-30T23:02:43.765Z,99596.19
2023-01-30T23:05:10.961Z,99602.91
2023-01-30T23:07:39.214Z,99595.91
2023-01-30T23:10:06.580Z,99597.25
2023-01-30T23:12:33.113Z,99593.22
2023-01-30T23:14:59.704Z,99586.75
2023-01-30T23:17:26.520Z,99591.59
2023-01-30T23:19:53.885Z,99586.22
2023-01-30T23:22:20.593Z,99579.78
2023-01-30T23:24:48.519Z,99583.53
2023-01-30T23:27:15.289Z,99584.59
2023-01-30T23:29:42.037Z,99577.34
2023-01-30T23:32:08.665Z,99587.84
2023-01-30T23:34:35.637Z,99583.00
2023-01-30T23:37:02.232Z,99591.59
2023-01-30T23:39:28.799Z,99600.47
2023-01-30T23:41:56.700Z,99586.50
2023-01-30T23:44:23.464Z,99596.72
2023-01-30T23:46:50.153Z,99588.13
2023-01-30T23:49:16.712Z,99580.06
2023-01-30T23:51:44.874Z,99590.28
2023-01-30T23:54:12.791Z,99586.50
2023-01-30T23:56:41.640Z,99590.56
2023-01-30T23:59:09.864Z,99584.63
